Costa Serena — ICAZ — position and weather

sailwx.info

Track history (hours):
 
Tides and Currents Weather Stations Pressure Air Temp Water Temp Dewpoint Dewpoint Depression Visibility Wind Speed Wind Dir Waves Ship Positions

Costa Serena

Last reported at 2017-Jun-25 16:38 UTC. Time now 2017-Jun-27 22:38 UTC.
Position N 31°07' E 123°25'.

Length 290 m; draft 8.2 m.

Type: Ship. MMSI: 247187600.

Date/timePositionNaut miles runAvg speedWind from/ knotsBaromVisibWave heightAir tempDewpointWater temp
2017-Jun-25 16:38N 31°07' E 123°25'212.4
2017-Jun-25 16:28N 31°07' E 123°22'712.0
2017-Jun-25 15:52N 31°06' E 123°14'511.7
2017-Jun-25 15:26N 31°06' E 123°08'511.9
2017-Jun-25 15:00N 31°06' E 123°02'1111.3
2017-Jun-25 14:00N 31°06' E 122°49'611.1
2017-Jun-25 13:30N 31°06' E 122°42'610.8
2017-Jun-25 12:59N 31°06' E 122°36'611.9
2017-Jun-25 12:30N 31°06' E 122°29'4 8.7
2017-Jun-25 12:00N 31°05' E 122°24'612.2
2017-Jun-25 11:29N 31°07' E 122°17'613.6
2017-Jun-25 11:00N 31°11' E 122°11'714.5
2017-Jun-25 10:30N 31°14' E 122°03'714.9
2017-Jun-25 10:00N 31°16' E 121°55'714.8
2017-Jun-25 09:30N 31°18' E 121°47'612.9
2017-Jun-25 09:01N 31°21' E 121°40'611.8
2017-Jun-25 08:30N 31°24' E 121°34'3 5.7
2017-Jun-25 07:58N 31°25' E 121°30'0 0.0
2017-Jun-25 07:28N 31°25' E 121°30'0 0.0
2017-Jun-25 07:00N 31°25' E 121°30'0 0.0
2017-Jun-25 06:27N 31°25' E 121°30'0 0.0
2017-Jun-25 06:00N 31°25' E 121°30'0 0.0
2017-Jun-25 05:30N 31°25' E 121°30'0 0.0
2017-Jun-25 04:57N 31°25' E 121°30'0 0.0
2017-Jun-25 04:29N 31°25' E 121°30'0 0.0
2017-Jun-25 03:50N 31°25' E 121°30'0 0.0
2017-Jun-25 03:29N 31°25' E 121°30'0 0.0
2017-Jun-25 02:59N 31°25' E 121°30'0 0.0
2017-Jun-25 02:25N 31°25' E 121°30'0 0.0
2017-Jun-25 01:55N 31°25' E 121°30'0 0.0
2017-Jun-25 01:25N 31°25' E 121°30'0 0.0
2017-Jun-25 00:58N 31°25' E 121°30'0 0.0
2017-Jun-25 00:25N 31°25' E 121°30'0 0.0
2017-Jun-24 23:57N 31°25' E 121°30'0 0.0
2017-Jun-24 23:30N 31°25' E 121°30'0 0.0
2017-Jun-24 23:00N 31°25' E 121°30'0 0.0
2017-Jun-24 22:30N 31°25' E 121°30'0 0.0
2017-Jun-24 22:00N 31°25' E 121°30'0 0.0
2017-Jun-24 21:23N 31°25' E 121°30'0 0.0
2017-Jun-24 20:53N 31°25' E 121°30'0 0.0
2017-Jun-24 20:26N 31°25' E 121°30'0 0.0
2017-Jun-24 19:59N 31°25' E 121°30'0 0.0
2017-Jun-24 19:29N 31°25' E 121°30'0 0.0
2017-Jun-24 18:58N 31°25' E 121°30'0 0.0
2017-Jun-24 18:28N 31°25' E 121°30'2 3.3
2017-Jun-24 18:00N 31°24' E 121°32'4 7.4
2017-Jun-24 17:30N 31°23' E 121°36'4 7.9
2017-Jun-24 17:00N 31°21' E 121°40'510.8
2017-Jun-24 16:30N 31°18' E 121°46'510.6
2017-Jun-24 16:00N 31°16' E 121°51'611.0
2017-Jun-24 15:30N 31°15' E 121°58'611.1
2017-Jun-24 15:00N 31°14' E 122°04'1111.3
2017-Jun-24 14:00N 31°08' E 122°15'611.7
2017-Jun-24 13:30N 31°06' E 122°22'611.4
2017-Jun-24 13:00N 31°07' E 122°28'714.1
2017-Jun-24 12:30N 31°07' E 122°36'  
2017-Jun-21 13:47N 31°06' E 122°39'415.6
2017-Jun-21 13:30N 31°06' E 122°34'4 8.4
2017-Jun-21 13:00N 31°06' E 122°29'4 7.3
2017-Jun-21 12:31N 31°05' E 122°25'713.6
2017-Jun-21 12:00N 31°07' E 122°17'612.5
2017-Jun-21 11:30N 31°10' E 122°11'612.9
2017-Jun-21 11:00N 31°14' E 122°05'713.4
2017-Jun-21 10:30N 31°15' E 121°58'714.3
2017-Jun-21 10:00N 31°17' E 121°49'713.8
2017-Jun-21 09:30N 31°20' E 121°42'611.5
2017-Jun-21 09:00N 31°23' E 121°36'510.1
2017-Jun-21 08:30N 31°25' E 121°31'0 0.7
2017-Jun-21 07:59N 31°25' E 121°30'0 0.0
2017-Jun-21 07:28N 31°25' E 121°30'0 0.0
2017-Jun-21 06:58N 31°25' E 121°30'0 0.0
2017-Jun-21 06:28N 31°25' E 121°30'0 0.0
2017-Jun-21 05:58N 31°25' E 121°30'0 0.0
2017-Jun-21 05:31N 31°25' E 121°30'0 0.0
2017-Jun-21 05:00N 31°25' E 121°30'0 0.0
2017-Jun-21 04:30N 31°25' E 121°30'0 0.0
2017-Jun-21 04:00N 31°25' E 121°30'0 0.0
2017-Jun-21 03:30N 31°25' E 121°30'0 0.0
2017-Jun-21 02:59N 31°25' E 121°30'0 0.0
2017-Jun-21 02:29N 31°25' E 121°30'0 0.0
2017-Jun-21 01:56N 31°25' E 121°30'0 0.0
2017-Jun-21 01:29N 31°25' E 121°30'0 0.0
2017-Jun-21 00:53N 31°25' E 121°30'0 0.0
2017-Jun-21 00:25N 31°25' E 121°30'0 0.0
2017-Jun-20 23:58N 31°25' E 121°30'0 0.0
2017-Jun-20 23:31N 31°25' E 121°30'2 3.7
2017-Jun-20 23:01N 31°24' E 121°33'611.7
2017-Jun-20 22:30N 31°21' E 121°39'612.3
2017-Jun-20 22:00N 31°19' E 121°45'714.9
2017-Jun-20 21:30N 31°16' E 121°53'714.4
2017-Jun-20 21:01N 31°15' E 122°01'5 9.8
2017-Jun-20 20:30N 31°13' E 122°07'5 9.2
2017-Jun-20 20:00N 31°10' E 122°11'5 9.2
2017-Jun-20 19:30N 31°08' E 122°16'510.6
2017-Jun-20 18:59N 31°06' E 122°22'510.3
2017-Jun-20 18:30N 31°07' E 122°27'812.7
2017-Jun-20 17:55N 31°07' E 122°36'1315.7
2017-Jun-20 17:07N 31°07' E 122°51'218.5
2017-Jun-20 17:01N 31°07' E 122°53'  
2017-Jun-18 02:18N 31°21' E 125°31'1012.5
2017-Jun-18 01:29N 31°18' E 125°19'612.7
2017-Jun-18 00:58N 31°16' E 125°12'1312.8
2017-Jun-17 23:58N 31°13' E 124°57'713.5
2017-Jun-17 23:29N 31°13' E 124°50'1213.0
2017-Jun-17 22:33N 31°12' E 124°35'213.2
2017-Jun-17 22:25N 31°11' E 124°33'1313.1
2017-Jun-17 21:24N 31°10' E 124°18'612.8
2017-Jun-17 20:57N 31°10' E 124°11'4412.3
2017-Jun-17 17:21N 31°07' E 123°20'1712.1
2017-Jun-17 15:57N 31°06' E 123°00'2212.3
2017-Jun-17 14:11N 31°05' E 122°35'810.4
2017-Jun-17 13:28N 31°06' E 122°26'510.1
2017-Jun-17 13:00N 31°06' E 122°20'510.7
2017-Jun-17 12:30N 31°08' E 122°15'713.8
2017-Jun-17 12:00N 31°12' E 122°08'612.5
2017-Jun-17 11:30N 31°14' E 122°01'611.8
2017-Jun-17 11:00N 31°16' E 121°55'510.3
2017-Jun-17 10:30N 31°17' E 121°49'510.0
2017-Jun-17 10:00N 31°19' E 121°43'4 8.4
2017-Jun-17 09:30N 31°21' E 121°39'4 8.7
2017-Jun-17 09:00N 31°23' E 121°35'4 7.1
2017-Jun-17 08:27N 31°25' E 121°31'0 0.5
2017-Jun-17 07:57N 31°25' E 121°30'0 0.0
2017-Jun-17 07:29N 31°25' E 121°30'0 0.0
2017-Jun-17 06:59N 31°25' E 121°30'0 0.0
2017-Jun-17 06:29N 31°25' E 121°30'0 0.0
2017-Jun-17 05:53N 31°25' E 121°30'0 0.0
2017-Jun-17 05:26N 31°25' E 121°30'0 0.0
2017-Jun-17 04:52N 31°25' E 121°30'0 0.0
2017-Jun-17 04:28N 31°25' E 121°30'0 0.0
2017-Jun-17 03:58N 31°25' E 121°30'0 0.0
2017-Jun-17 03:28N 31°25' E 121°30'0 0.0
2017-Jun-17 03:00N 31°25' E 121°30'0 0.0
2017-Jun-17 02:30N 31°25' E 121°30'0 0.0
2017-Jun-17 01:57N 31°25' E 121°30'0 0.0
2017-Jun-17 01:30N 31°25' E 121°30'0 0.0
2017-Jun-17 01:00N 31°25' E 121°30'0 0.0
2017-Jun-17 00:29N 31°25' E 121°30'0 0.0
2017-Jun-16 23:59N 31°25' E 121°30'0 0.0
2017-Jun-16 23:29N 31°25' E 121°30'0 0.0
2017-Jun-16 22:59N 31°25' E 121°30'0 0.0
2017-Jun-16 22:25N 31°25' E 121°30'0 0.0
2017-Jun-16 21:58N 31°25' E 121°30'0 0.0
2017-Jun-16 21:30N 31°25' E 121°30'1 2.2
2017-Jun-16 21:00N 31°24' E 121°32'611.4
2017-Jun-16 20:30N 31°22' E 121°38'611.4
2017-Jun-16 20:00N 31°19' E 121°43'611.0
2017-Jun-16 19:30N 31°17' E 121°49'510.5
2017-Jun-16 19:00N 31°16' E 121°55'611.7
2017-Jun-16 18:30N 31°14' E 122°02'510.0
2017-Jun-16 18:00N 31°13' E 122°08'5 9.8
2017-Jun-16 17:30N 31°10' E 122°12'5 9.4
2017-Jun-16 17:00N 31°07' E 122°17'4 7.8
2017-Jun-16 16:30N 31°06' E 122°21'5 9.5
2017-Jun-16 16:00N 31°07' E 122°27'4111.6
2017-Jun-16 12:25N 31°13' E 123°15'612.7
2017-Jun-16 11:58N 31°15' E 123°21'712.8
2017-Jun-16 11:25N 31°17' E 123°29'1512.8
2017-Jun-16 10:14N 31°23' E 123°45'1112.5
2017-Jun-16 09:20N 31°27' E 123°57'6512.1
2017-Jun-16 03:57N 31°51' E 125°08'  
Track history (hours):
 
Tides and Currents Weather Stations Pressure Air Temp Water Temp Dewpoint Dewpoint Depression Visibility Wind Speed Wind Dir Waves Ship Positions

Costa Serena

Last reported at 2017-Jun-25 16:38 UTC. Time now 2017-Jun-27 22:38 UTC.
Position N 31°07' E 123°25'.

Length 290 m; draft 8.2 m.

Type: Ship. MMSI: 247187600.

Date/timePositionNaut miles runAvg speedWind from/ knotsBaromVisibWave heightAir tempDewpointWater temp
2017-Jun-25 16:38N 31°07' E 123°25'212.4
2017-Jun-25 16:28N 31°07' E 123°22'712.0
2017-Jun-25 15:52N 31°06' E 123°14'511.7
2017-Jun-25 15:26N 31°06' E 123°08'511.9
2017-Jun-25 15:00N 31°06' E 123°02'1111.3
2017-Jun-25 14:00N 31°06' E 122°49'611.1
2017-Jun-25 13:30N 31°06' E 122°42'610.8
2017-Jun-25 12:59N 31°06' E 122°36'611.9
2017-Jun-25 12:30N 31°06' E 122°29'4 8.7
2017-Jun-25 12:00N 31°05' E 122°24'612.2
2017-Jun-25 11:29N 31°07' E 122°17'613.6
2017-Jun-25 11:00N 31°11' E 122°11'714.5
2017-Jun-25 10:30N 31°14' E 122°03'714.9
2017-Jun-25 10:00N 31°16' E 121°55'714.8
2017-Jun-25 09:30N 31°18' E 121°47'612.9
2017-Jun-25 09:01N 31°21' E 121°40'611.8
2017-Jun-25 08:30N 31°24' E 121°34'3 5.7
2017-Jun-25 07:58N 31°25' E 121°30'0 0.0
2017-Jun-25 07:28N 31°25' E 121°30'0 0.0
2017-Jun-25 07:00N 31°25' E 121°30'0 0.0
2017-Jun-25 06:27N 31°25' E 121°30'0 0.0
2017-Jun-25 06:00N 31°25' E 121°30'0 0.0
2017-Jun-25 05:30N 31°25' E 121°30'0 0.0
2017-Jun-25 04:57N 31°25' E 121°30'0 0.0
2017-Jun-25 04:29N 31°25' E 121°30'0 0.0
2017-Jun-25 03:50N 31°25' E 121°30'0 0.0
2017-Jun-25 03:29N 31°25' E 121°30'0 0.0
2017-Jun-25 02:59N 31°25' E 121°30'0 0.0
2017-Jun-25 02:25N 31°25' E 121°30'0 0.0
2017-Jun-25 01:55N 31°25' E 121°30'0 0.0
2017-Jun-25 01:25N 31°25' E 121°30'0 0.0
2017-Jun-25 00:58N 31°25' E 121°30'0 0.0
2017-Jun-25 00:25N 31°25' E 121°30'0 0.0
2017-Jun-24 23:57N 31°25' E 121°30'0 0.0
2017-Jun-24 23:30N 31°25' E 121°30'0 0.0
2017-Jun-24 23:00N 31°25' E 121°30'0 0.0
2017-Jun-24 22:30N 31°25' E 121°30'0 0.0
2017-Jun-24 22:00N 31°25' E 121°30'0 0.0
2017-Jun-24 21:23N 31°25' E 121°30'0 0.0
2017-Jun-24 20:53N 31°25' E 121°30'0 0.0
2017-Jun-24 20:26N 31°25' E 121°30'0 0.0
2017-Jun-24 19:59N 31°25' E 121°30'0 0.0
2017-Jun-24 19:29N 31°25' E 121°30'0 0.0
2017-Jun-24 18:58N 31°25' E 121°30'0 0.0
2017-Jun-24 18:28N 31°25' E 121°30'2 3.3
2017-Jun-24 18:00N 31°24' E 121°32'4 7.4
2017-Jun-24 17:30N 31°23' E 121°36'4 7.9
2017-Jun-24 17:00N 31°21' E 121°40'510.8
2017-Jun-24 16:30N 31°18' E 121°46'510.6
2017-Jun-24 16:00N 31°16' E 121°51'611.0
2017-Jun-24 15:30N 31°15' E 121°58'611.1
2017-Jun-24 15:00N 31°14' E 122°04'1111.3
2017-Jun-24 14:00N 31°08' E 122°15'611.7
2017-Jun-24 13:30N 31°06' E 122°22'611.4
2017-Jun-24 13:00N 31°07' E 122°28'714.1
2017-Jun-24 12:30N 31°07' E 122°36'  
2017-Jun-21 13:47N 31°06' E 122°39'415.6
2017-Jun-21 13:30N 31°06' E 122°34'4 8.4
2017-Jun-21 13:00N 31°06' E 122°29'4 7.3
2017-Jun-21 12:31N 31°05' E 122°25'713.6
2017-Jun-21 12:00N 31°07' E 122°17'612.5
2017-Jun-21 11:30N 31°10' E 122°11'612.9
2017-Jun-21 11:00N 31°14' E 122°05'713.4
2017-Jun-21 10:30N 31°15' E 121°58'714.3
2017-Jun-21 10:00N 31°17' E 121°49'713.8
2017-Jun-21 09:30N 31°20' E 121°42'611.5
2017-Jun-21 09:00N 31°23' E 121°36'510.1
2017-Jun-21 08:30N 31°25' E 121°31'0 0.7
2017-Jun-21 07:59N 31°25' E 121°30'0 0.0
2017-Jun-21 07:28N 31°25' E 121°30'0 0.0
2017-Jun-21 06:58N 31°25' E 121°30'0 0.0
2017-Jun-21 06:28N 31°25' E 121°30'0 0.0
2017-Jun-21 05:58N 31°25' E 121°30'0 0.0
2017-Jun-21 05:31N 31°25' E 121°30'0 0.0
2017-Jun-21 05:00N 31°25' E 121°30'0 0.0
2017-Jun-21 04:30N 31°25' E 121°30'0 0.0
2017-Jun-21 04:00N 31°25' E 121°30'0 0.0
2017-Jun-21 03:30N 31°25' E 121°30'0 0.0
2017-Jun-21 02:59N 31°25' E 121°30'0 0.0
2017-Jun-21 02:29N 31°25' E 121°30'0 0.0
2017-Jun-21 01:56N 31°25' E 121°30'0 0.0
2017-Jun-21 01:29N 31°25' E 121°30'0 0.0
2017-Jun-21 00:53N 31°25' E 121°30'0 0.0
2017-Jun-21 00:25N 31°25' E 121°30'0 0.0
2017-Jun-20 23:58N 31°25' E 121°30'0 0.0
2017-Jun-20 23:31N 31°25' E 121°30'2 3.7
2017-Jun-20 23:01N 31°24' E 121°33'611.7
2017-Jun-20 22:30N 31°21' E 121°39'612.3
2017-Jun-20 22:00N 31°19' E 121°45'714.9
2017-Jun-20 21:30N 31°16' E 121°53'714.4
2017-Jun-20 21:01N 31°15' E 122°01'5 9.8
2017-Jun-20 20:30N 31°13' E 122°07'5 9.2
2017-Jun-20 20:00N 31°10' E 122°11'5 9.2
2017-Jun-20 19:30N 31°08' E 122°16'510.6
2017-Jun-20 18:59N 31°06' E 122°22'510.3
2017-Jun-20 18:30N 31°07' E 122°27'812.7
2017-Jun-20 17:55N 31°07' E 122°36'1315.7
2017-Jun-20 17:07N 31°07' E 122°51'218.5
2017-Jun-20 17:01N 31°07' E 122°53'  
2017-Jun-18 02:18N 31°21' E 125°31'1012.5
2017-Jun-18 01:29N 31°18' E 125°19'612.7
2017-Jun-18 00:58N 31°16' E 125°12'1312.8
2017-Jun-17 23:58N 31°13' E 124°57'713.5
2017-Jun-17 23:29N 31°13' E 124°50'1213.0
2017-Jun-17 22:33N 31°12' E 124°35'213.2
2017-Jun-17 22:25N 31°11' E 124°33'1313.1
2017-Jun-17 21:24N 31°10' E 124°18'612.8
2017-Jun-17 20:57N 31°10' E 124°11'4412.3
2017-Jun-17 17:21N 31°07' E 123°20'1712.1
2017-Jun-17 15:57N 31°06' E 123°00'2212.3
2017-Jun-17 14:11N 31°05' E 122°35'810.4
2017-Jun-17 13:28N 31°06' E 122°26'510.1
2017-Jun-17 13:00N 31°06' E 122°20'510.7
2017-Jun-17 12:30N 31°08' E 122°15'713.8
2017-Jun-17 12:00N 31°12' E 122°08'612.5
2017-Jun-17 11:30N 31°14' E 122°01'611.8
2017-Jun-17 11:00N 31°16' E 121°55'510.3
2017-Jun-17 10:30N 31°17' E 121°49'510.0
2017-Jun-17 10:00N 31°19' E 121°43'4 8.4
2017-Jun-17 09:30N 31°21' E 121°39'4 8.7
2017-Jun-17 09:00N 31°23' E 121°35'4 7.1
2017-Jun-17 08:27N 31°25' E 121°31'0 0.5
2017-Jun-17 07:57N 31°25' E 121°30'0 0.0
2017-Jun-17 07:29N 31°25' E 121°30'0 0.0
2017-Jun-17 06:59N 31°25' E 121°30'0 0.0
2017-Jun-17 06:29N 31°25' E 121°30'0 0.0
2017-Jun-17 05:53N 31°25' E 121°30'0 0.0
2017-Jun-17 05:26N 31°25' E 121°30'0 0.0
2017-Jun-17 04:52N 31°25' E 121°30'0 0.0
2017-Jun-17 04:28N 31°25' E 121°30'0 0.0
2017-Jun-17 03:58N 31°25' E 121°30'0 0.0
2017-Jun-17 03:28N 31°25' E 121°30'0 0.0
2017-Jun-17 03:00N 31°25' E 121°30'0 0.0
2017-Jun-17 02:30N 31°25' E 121°30'0 0.0
2017-Jun-17 01:57N 31°25' E 121°30'0 0.0
2017-Jun-17 01:30N 31°25' E 121°30'0 0.0
2017-Jun-17 01:00N 31°25' E 121°30'0 0.0
2017-Jun-17 00:29N 31°25' E 121°30'0 0.0
2017-Jun-16 23:59N 31°25' E 121°30'0 0.0
2017-Jun-16 23:29N 31°25' E 121°30'0 0.0
2017-Jun-16 22:59N 31°25' E 121°30'0 0.0
2017-Jun-16 22:25N 31°25' E 121°30'0 0.0
2017-Jun-16 21:58N 31°25' E 121°30'0 0.0
2017-Jun-16 21:30N 31°25' E 121°30'1 2.2
2017-Jun-16 21:00N 31°24' E 121°32'611.4
2017-Jun-16 20:30N 31°22' E 121°38'611.4
2017-Jun-16 20:00N 31°19' E 121°43'611.0
2017-Jun-16 19:30N 31°17' E 121°49'510.5
2017-Jun-16 19:00N 31°16' E 121°55'611.7
2017-Jun-16 18:30N 31°14' E 122°02'510.0
2017-Jun-16 18:00N 31°13' E 122°08'5 9.8
2017-Jun-16 17:30N 31°10' E 122°12'5 9.4
2017-Jun-16 17:00N 31°07' E 122°17'4 7.8
2017-Jun-16 16:30N 31°06' E 122°21'5 9.5
2017-Jun-16 16:00N 31°07' E 122°27'4111.6
2017-Jun-16 12:25N 31°13' E 123°15'612.7
2017-Jun-16 11:58N 31°15' E 123°21'712.8
2017-Jun-16 11:25N 31°17' E 123°29'1512.8
2017-Jun-16 10:14N 31°23' E 123°45'1112.5
2017-Jun-16 09:20N 31°27' E 123°57'6512.1
2017-Jun-16 03:57N 31°51' E 125°08'  

Dump ship's entire track history